Latest Coastal Weather Observations for Cape Grim

IDV60701

Issued at 11:42 am EDT Tuesday 6 December 2016 (issued every 10 minutes, with the page automatically refreshed every 10 minutes)

About coastal observations | Map of coastal stations | Coastal observations for VIC | Marine services | Other Formats
Station Details ID: 091331 Name: CAPE GRIM Lat: -40.68 Lon: 144.69 Height: 86.0 m
Data from the previous 72 hours. | See also: Recent months at Cape Grim
Date/Time
EDT
Temp
°C
Wind Pressure Rain since
9am
mm
Weather Cloud Vis
km
Sea
Height
m
Swell
Dir  Spd
kts
Gust
kts
hPa Trend Height
m
Period
s
Dir
06/11:30am 14.1 WSW 8 14 1012.9 - 0.0 - Cloudy - - - - -
06/11:00am 14.0 WSW 8 14 1012.7 - 0.0 - Cloudy - - - - -
06/10:30am 13.9 W 9 17 1012.5 - 0.0 - Cloudy - - - - -
06/10:00am 13.4 WSW 10 16 1012.5 - 0.0 - Partly cloudy - - - - -
06/09:30am 12.9 WSW 9 16 1012.4 - 0.0 - Cloudy - - - - -
06/09:00am 12.9 W 10 16 1012.5 - 0.2 - Mostly cloudy - - - - -
06/08:30am 12.9 WSW 9 14 1012.6 - 0.2 - Partly cloudy - - - - -
06/08:00am 12.7 SW 8 13 1012.0 - 0.2 - Partly cloudy - - - - -
06/07:30am 12.2 SW 12 17 1012.0 - 0.2 - Cloudy - - - - -
06/07:00am 12.2 SW 12 18 1012.3 - 0.2 - Cloudy - - - - -
06/06:30am 12.2 WSW 15 23 1012.0 - 0.2 - Cloudy - - - - -
06/06:07am 12.2 WSW 15 25 1012.2 - 0.2 - Cloudy - - - - -
06/06:00am 12.2 WSW 12 21 1012.2 - 0.2 - Cloudy - - - - -
06/05:30am 12.0 WSW 14 23 1011.9 - 0.2 - Cloudy - - - - -
06/05:00am 12.2 WSW 12 19 1011.8 - 0.2 - Cloudy - - - - -
06/04:30am 12.3 WSW 12 19 1011.6 - 0.2 - Cloudy - - - - -
06/04:00am 12.2 W 8 13 1011.4 - 0.2 - Partly cloudy - - - - -
06/03:30am 12.1 W 9 13 1011.3 - 0.2 - Cloudy - - - - -
06/03:00am 11.9 W 12 15 1011.7 - 0.2 - Cloudy - - - - -
06/02:30am 12.1 W 10 14 1011.7 - 0.2 - Cloudy - - - - -
06/02:00am 12.2 WSW 9 15 1012.2 - 0.2 - Partly cloudy - - - - -
06/01:30am 12.3 W 9 15 1012.4 - 0.2 - Cloudy - - - - -
06/01:00am 12.3 W 7 11 1012.2 - 0.2 - Partly cloudy - - - - -
06/12:30am 12.3 WSW 9 13 1012.4 - 0.2 - Partly cloudy - - - - -
06/12:00am 12.5 WSW 8 13 1012.6 - 0.2 - Partly cloudy - - - - -
 
Date/Time
EDT
Temp
°C
Wind Pressure Rain since
9am
mm
Weather Cloud Vis
km
Sea
Height
m
Swell
Dir  Spd
kts
Gust
kts
hPa Trend Height
m
Period
s
Dir
05/11:30pm 12.1 SW 13 18 1012.6 - 0.2 - Partly cloudy - - - - -
05/11:00pm 12.6 SW 13 16 1013.4 - 0.2 - Partly cloudy - - - - -
05/10:30pm 12.6 SW 13 18 1013.8 - 0.2 - Partly cloudy - - - - -
05/10:00pm 12.7 SW 14 18 1014.0 - 0.2 - Partly cloudy - - - - -
05/09:30pm 12.2 SW 14 18 1013.5 - 0.2 - Partly cloudy - - - - -
05/09:00pm 12.2 SW 14 22 1012.7 - 0.2 - Mostly clear - - - - -
05/08:30pm 12.5 SW 17 22 1012.7 - 0.2 - Partly cloudy - - - - -
05/08:00pm 12.8 SW 18 22 1012.5 - 0.2 - Cloudy - - - - -
05/07:30pm 13.2 SW 17 24 1012.8 - 0.2 - Partly cloudy - - - - -
05/07:00pm 13.4 SW 20 24 1012.5 - 0.2 - Partly cloudy - - - - -
05/06:30pm 13.6 SW 21 25 1011.8 - 0.2 - - - - - - -
05/06:00pm 13.8 SW 19 23 1011.7 - 0.2 - - - - - - -
05/05:30pm 13.2 SW 20 26 1011.7 - 0.2 - - - - - - -
05/05:00pm 14.2 SW 21 26 1012.1 - 0.2 - - - - - - -
05/04:30pm 14.1 SW 21 25 1011.6 - 0.2 - Cloudy - - - - -
05/04:00pm 13.9 SW 21 27 1011.3 - 0.2 - Partly cloudy - - - - -
05/03:30pm 14.1 SW 22 29 1011.0 - 0.2 - Partly cloudy - - - - -
05/03:00pm 14.0 SW 21 29 1011.0 - 0.2 - Cloudy - - - - -
05/02:30pm 15.2 SW 20 25 1010.9 - 0.2 - - - - - - -
05/02:00pm 14.1 SW 19 27 1010.8 - 0.2 - - - - - - -
05/01:32pm 13.7 SW 19 29 1011.0 - 0.2 - Partly cloudy - - - - -
05/01:30pm 13.7 SW 20 29 1011.0 - 0.2 - Partly cloudy - - - - -
05/01:03pm 13.6 WSW 15 26 1010.5 - 0.2 - Cloudy - - - - -
05/01:00pm 13.7 WSW 14 25 1010.5 - 0.2 - Cloudy - - - - -
05/12:48pm 14.2 SW 17 27 1010.5 - 0.2 - Partly cloudy - - - - -
05/12:30pm 14.1 SW 17 26 1010.1 - 0.2 - Partly cloudy - - - - -
05/12:18pm 14.3 SW 15 25 1009.9 - 0.0 - Partly cloudy - - - - -
05/12:00pm 14.2 SW 17 26 1009.9 - 0.0 - Mostly cloudy - - - - -
05/11:34am 14.1 WSW 15 29 1009.8 - 0.0 - Partly cloudy - - - - -
05/11:30am 13.7 WSW 14 26 1009.7 - 0.0 - Partly cloudy - - - - -
05/11:10am 13.9 SW 16 27 1009.6 - 0.0 - Partly cloudy - - - - -
05/11:00am 14.0 SW 19 25 1009.4 - 0.0 - Partly cloudy - - - - -
05/10:30am 13.5 WSW 15 29 1009.1 - 0.0 - Partly cloudy - - - - -
05/10:09am 14.3 W 15 25 1008.8 - 0.0 - Partly cloudy - - - - -
05/10:00am 14.4 WSW 12 22 1008.7 - 0.0 - Partly cloudy - - - - -
05/09:30am 14.5 WSW 11 19 1008.4 - 0.0 - Partly cloudy - - - - -
05/09:00am 14.4 WSW 12 21 1007.9 - 2.4 - Cloudy - - - - -
05/08:30am 13.9 WSW 17 27 1007.4 - 2.4 - Cloudy - - - - -
05/08:00am 14.2 WSW 15 28 1006.9 - 2.4 - Partly cloudy - - - - -
05/07:38am 14.1 W 15 27 1006.7 - 2.4 - Partly cloudy - - - - -
05/07:30am 14.1 W 14 23 1006.6 - 2.4 - Cloudy - - - - -
05/07:06am 13.9 W 20 31 1006.2 - 2.4 - Cloudy - - - - -
05/07:00am 14.1 W 19 27 1006.1 - 2.4 - Cloudy - - - - -
05/06:46am 13.9 W 17 27 1005.9 - 2.4 - Cloudy - - - - -
05/06:30am 13.9 W 18 27 1005.6 - 2.4 - Partly cloudy - - - - -
05/06:00am 13.7 WSW 18 29 1005.0 - 2.4 - Mostly cloudy - - - - -
05/05:30am 13.4 WSW 18 31 1004.2 - 2.4 - Partly cloudy - - - - -
05/05:00am 13.3 WSW 18 35 1003.5 - 2.4 - Partly cloudy - - - - -
05/04:30am 13.7 WSW 18 33 1002.8 - 2.4 - Partly cloudy - - - - -
05/04:00am 14.0 W 21 33 1002.1 - 2.4 - Partly cloudy - - - - -
05/03:47am 14.4 W 20 31 1001.6 - 2.4 - Partly cloudy - - - - -
05/03:43am 14.4 WSW 20 29 1001.6 - 2.4 - Partly cloudy - - - - -
05/03:30am 14.5 W 20 32 1001.3 - 2.4 - Partly cloudy - - - - -
05/03:00am 14.8 W 23 34 1000.9 - 2.4 - Cloudy - - - - -
05/02:30am 15.5 W 27 37 1000.4 - 2.4 - Cloudy - - - - -
05/02:00am 16.4 WNW 28 36 1000.0 - 2.4 - Partly cloudy - - - - -
05/01:50am 16.6 NW 27 33 999.9 - 2.4 - Partly cloudy - - - - -
05/01:30am 16.4 NW 22 31 999.8 - 1.6 - Partly cloudy - - - - -
05/01:00am 17.0 NNW 29 39 999.5 - 1.0 - Partly cloudy - - - - -
05/12:41am 17.7 N 26 36 998.5 - 0.6 - Partly cloudy - - - - -
05/12:30am 17.8 N 26 35 998.6 - 0.6 - Partly cloudy - - - - -
05/12:00am 17.3 NNE 21 29 999.2 - 0.6 - Cloudy - - - - -
 
Date/Time
EDT
Temp
°C
Wind Pressure Rain since
9am
mm
Weather Cloud Vis
km
Sea
Height
m
Swell
Dir  Spd
kts
Gust
kts
hPa Trend Height
m
Period
s
Dir
04/11:58pm 17.3 NNE 20 29 999.3 - 0.6 - Partly cloudy - - - - -
04/11:30pm 16.4 NE 17 21 1000.2 - 0.6 - Partly cloudy - - - - -
04/11:00pm 16.2 NE 14 17 1000.7 - 0.6 - Partly cloudy - - - - -
04/10:30pm 16.2 NE 15 18 1001.3 - 0.6 - Partly cloudy - - - - -
04/10:00pm 15.7 NE 16 20 1002.0 - 0.6 - Partly cloudy - - - - -
04/09:30pm 15.4 NE 18 22 1002.6 - 0.6 - Partly cloudy - - - - -
04/09:19pm 15.2 NE 19 23 1002.8 - 0.6 - Partly cloudy - - - - -
04/09:00pm 15.1 ENE 19 24 1003.6 - 0.4 Recent precip. Cloudy - - - - -
04/08:36pm 14.9 ENE 20 25 1003.7 - 0.4 - Partly cloudy - - - - -
04/08:30pm 15.0 ENE 20 25 1003.9 - 0.4 - Partly cloudy - - - - -
04/08:00pm 15.0 ENE 20 23 1003.6 - 0.2 - Partly cloudy - - - - -
04/07:30pm 14.9 E 23 28 1003.3 - 0.0 - Partly cloudy - - - - -
04/07:00pm 15.2 E 24 29 1003.6 - 0.0 - Partly cloudy - - - - -
04/06:55pm 15.1 E 24 31 1003.3 - 0.0 - Partly cloudy - - - - -
04/06:30pm 15.2 ENE 26 31 1003.4 - 0.0 - Partly cloudy - - - - -
04/06:00pm 15.3 ENE 26 32 1004.4 - 0.0 - Cloudy - - - - -
04/05:30pm 15.8 ENE 27 33 1004.2 - 0.0 - Cloudy - - - - -
04/05:00pm 15.4 ENE 27 33 1004.8 - 0.0 - Cloudy - - - - -
04/04:30pm 15.8 ENE 26 31 1006.0 - 0.0 - Cloudy - - - - -
04/04:00pm 16.2 ENE 25 32 1006.6 - 0.0 - Cloudy - - - - -
04/03:30pm 16.6 ENE 27 33 1006.8 - 0.0 - Cloudy - - - - -
04/03:00pm 16.0 ENE 26 33 1006.7 - 0.0 - Cloudy - - - - -
04/02:30pm 15.9 ENE 28 34 1007.2 - 0.0 - Cloudy - - - - -
04/02:00pm 16.7 ENE 28 34 1007.7 - 0.0 - Cloudy - - - - -
04/01:30pm 16.1 ENE 27 35 1008.0 - 0.0 - Cloudy - - - - -
04/01:00pm 16.3 ENE 29 36 1008.3 - 0.0 - Cloudy - - - - -
04/12:30pm 16.2 ENE 28 37 1008.5 - 0.0 - Cloudy - - - - -
04/12:26pm 16.1 ENE 27 37 1008.5 - 0.0 - Cloudy - - - - -
04/12:00pm 15.4 ENE 26 32 1009.1 - 0.0 - Cloudy - - - - -
04/11:30am 15.7 ENE 25 32 1010.1 - 0.0 - Cloudy - - - - -
04/11:11am 15.4 ENE 25 31 1010.3 - 0.0 - Partly cloudy - - - - -
04/11:00am 15.6 ENE 27 32 1010.5 - 0.0 - Partly cloudy - - - - -
04/10:30am 15.6 ENE 24 31 1010.6 - 0.0 - Partly cloudy - - - - -
04/10:00am 15.2 ENE 25 32 1010.7 - 0.0 - - - - - - -
04/09:30am 14.9 ENE 25 30 1011.0 - 0.0 - - - - - - -
04/09:00am 15.0 ENE 23 28 1011.1 - 0.0 - - - - - - -
04/08:30am 14.5 ENE 20 25 1011.4 - 0.0 - - - - - - -
04/08:00am 14.0 ENE 20 24 1011.7 - 0.0 - - - - - - -
04/07:30am 13.5 ENE 18 22 1011.7 - 0.0 - - - - - - -
04/07:00am 12.7 ENE 16 20 1012.0 - 0.0 - - - - - - -
04/06:30am 12.1 ENE 15 19 1011.9 - 0.0 - - - - - - -
04/06:00am 11.5 ENE 15 17 1011.8 - 0.0 - - - - - - -
04/05:30am 10.5 NE 13 16 1012.2 - 0.0 - - - - - - -
04/05:00am 8.8 NE 11 12 1012.3 - 0.0 - - - - - - -
04/04:30am 9.0 ENE 11 13 1012.1 - 0.0 - - - - - - -
04/04:00am 8.6 E 10 11 1012.2 - 0.0 - - - - - - -
04/03:30am 8.5 E 10 11 1012.5 - 0.0 - - - - - - -
04/03:00am 9.0 E 9 10 1013.0 - 0.0 - - - - - - -
04/02:30am 8.8 E 10 10 1013.1 - 0.0 - - - - - - -
04/02:00am 8.6 E 11 11 1013.3 - 0.0 - - - - - - -
04/01:30am 8.6 ESE 11 11 1013.8 - 0.0 - - - - - - -
04/01:00am 9.2 ESE 12 13 1014.2 - 0.0 - - - - - - -
04/12:30am 9.7 SE 10 11 1014.6 - 0.0 - - - - - - -
04/12:00am 10.3 SE 5 6 1015.5 - 0.0 - - - - - - -
 
Date/Time
EDT
Temp
°C
Wind Pressure Rain since
9am
mm
Weather Cloud Vis
km
Sea
Height
m
Swell
Dir  Spd
kts
Gust
kts
hPa Trend Height
m
Period
s
Dir
03/11:30pm 10.4 SE 6 7 1015.3 - 0.0 - - - - - - -
03/11:00pm 10.6 SSE 5 6 1015.4 - 0.0 - - - - - - -
03/10:30pm 11.1 S 5 6 1015.7 - 0.0 - - - - - - -
03/10:00pm 11.7 SSW 3 4 1015.9 - 0.0 - - - - - - -
03/09:30pm 11.6 SSW 4 6 1015.9 - 0.0 - - - - - - -
03/09:00pm 12.3 SW 5 7 1015.9 - 0.0 - - - - - - -
03/08:30pm 12.7 SW 5 7 1015.9 - 0.0 - - - - - - -
03/08:00pm 13.6 WSW 5 8 1016.0 - 0.0 - - - - - - -
03/07:30pm 13.9 WSW 6 11 1015.9 - 0.0 - - - - - - -
03/07:00pm 14.3 WSW 7 11 1015.5 - 0.0 - - - - - - -
03/06:30pm 14.8 WSW 7 10 1015.5 - 0.0 - - - - - - -
03/06:00pm 14.4 WSW 7 11 1015.4 - 0.0 - - - - - - -
03/05:30pm 14.9 W 7 12 1015.4 - 0.0 - - - - - - -
03/05:00pm 15.0 W 7 11 1015.4 - 0.0 - - - - - - -
03/04:30pm 14.6 W 8 12 1015.6 - 0.0 - - - - - - -
03/04:00pm 14.9 WSW 7 10 1015.5 - 0.0 - - - - - - -
03/03:30pm 15.0 WSW 7 10 1015.4 - 0.0 - - - - - - -
03/03:00pm 15.1 W 7 11 1015.6 - 0.0 - - - - - - -
03/02:30pm 14.9 W 8 11 1015.9 - 0.0 - - - - - - -
03/02:00pm 15.1 W 8 11 1016.0 - 0.0 - - - - - - -
03/01:30pm 15.0 W 7 10 1016.0 - 0.0 - - - - - - -
03/01:00pm 14.6 W 7 10 1016.1 - 0.0 - - - - - - -
03/12:30pm 14.9 W 7 10 1016.1 - 0.0 - - - - - - -
03/12:00pm 14.3 W 8 10 1016.2 - 0.0 - - - - - - -

Other Formats:

Comma delimited format used in spreadsheet applications
http://www.bom.gov.au/fwo/IDV60701/IDV60701.95954.axf

JavaScript Object Notation format (JSON) in row-major order
http://www.bom.gov.au/fwo/IDV60701/IDV60701.95954.json